<?xml version="1.0" encoding="UTF-8" standalone="no" ?>
<gpx xmlns="http://www.topografix.com/GPX/1/1" xmlns:xsi="http://www.w3.org/2001/XMLSchema-instance" xsi:schemaLocation="http://www.topografix.com/GPX/1/1 http://www.topografix.com/GPX/1/1/gpx.xsd" version="1.1" creator="VisuGPX - https://www.visugpx.com">
  <metadata>
    <name>Course à pied le matin</name>
  </metadata>
  <trk>
    <name><![CDATA[Course à pied le matin_1]]></name>
    <trkseg>
      <trkpt lat="48.71144" lon="7.16291">
        <ele>317.1</ele>
        <time>2023-12-07T07:51:44Z</time>
      </trkpt>
      <trkpt lat="48.71146" lon="7.16287">
        <ele>317.2</ele>
        <time>2023-12-07T07:51:46Z</time>
      </trkpt>
      <trkpt lat="48.71135" lon="7.16267">
        <ele>317.6</ele>
        <time>2023-12-07T07:51:55Z</time>
      </trkpt>
      <trkpt lat="48.71118" lon="7.16254">
        <ele>317.9</ele>
        <time>2023-12-07T07:52:03Z</time>
      </trkpt>
      <trkpt lat="48.71104" lon="7.16234">
        <ele>318.1</ele>
        <time>2023-12-07T07:52:12Z</time>
      </trkpt>
      <trkpt lat="48.7109" lon="7.16215">
        <ele>318.2</ele>
        <time>2023-12-07T07:52:21Z</time>
      </trkpt>
      <trkpt lat="48.71074" lon="7.16197">
        <ele>318.4</ele>
        <time>2023-12-07T07:52:30Z</time>
      </trkpt>
      <trkpt lat="48.71057" lon="7.16187">
        <ele>318.5</ele>
        <time>2023-12-07T07:52:38Z</time>
      </trkpt>
      <trkpt lat="48.71038" lon="7.16183">
        <ele>318.6</ele>
        <time>2023-12-07T07:52:46Z</time>
      </trkpt>
      <trkpt lat="48.7102" lon="7.16177">
        <ele>318.7</ele>
        <time>2023-12-07T07:52:54Z</time>
      </trkpt>
      <trkpt lat="48.71002" lon="7.1617">
        <ele>318.9</ele>
        <time>2023-12-07T07:53:02Z</time>
      </trkpt>
      <trkpt lat="48.70984" lon="7.16166">
        <ele>319.4</ele>
        <time>2023-12-07T07:53:10Z</time>
      </trkpt>
      <trkpt lat="48.70966" lon="7.16161">
        <ele>320</ele>
        <time>2023-12-07T07:53:19Z</time>
      </trkpt>
      <trkpt lat="48.70947" lon="7.1616">
        <ele>320.6</ele>
        <time>2023-12-07T07:53:27Z</time>
      </trkpt>
      <trkpt lat="48.70928" lon="7.16155">
        <ele>321.3</ele>
        <time>2023-12-07T07:53:36Z</time>
      </trkpt>
      <trkpt lat="48.70911" lon="7.16148">
        <ele>322</ele>
        <time>2023-12-07T07:53:44Z</time>
      </trkpt>
      <trkpt lat="48.70893" lon="7.16144">
        <ele>322.6</ele>
        <time>2023-12-07T07:53:52Z</time>
      </trkpt>
      <trkpt lat="48.70874" lon="7.16138">
        <ele>323.3</ele>
        <time>2023-12-07T07:54:01Z</time>
      </trkpt>
      <trkpt lat="48.70854" lon="7.16134">
        <ele>324</ele>
        <time>2023-12-07T07:54:09Z</time>
      </trkpt>
      <trkpt lat="48.70835" lon="7.16129">
        <ele>324.9</ele>
        <time>2023-12-07T07:54:18Z</time>
      </trkpt>
      <trkpt lat="48.7082" lon="7.16145">
        <ele>326.8</ele>
        <time>2023-12-07T07:54:28Z</time>
      </trkpt>
      <trkpt lat="48.70807" lon="7.16165">
        <ele>328.3</ele>
        <time>2023-12-07T07:54:36Z</time>
      </trkpt>
      <trkpt lat="48.70794" lon="7.16187">
        <ele>329.8</ele>
        <time>2023-12-07T07:54:46Z</time>
      </trkpt>
      <trkpt lat="48.70782" lon="7.16207">
        <ele>331.2</ele>
        <time>2023-12-07T07:54:55Z</time>
      </trkpt>
      <trkpt lat="48.7077" lon="7.1623">
        <ele>332.9</ele>
        <time>2023-12-07T07:55:06Z</time>
      </trkpt>
      <trkpt lat="48.70758" lon="7.16251">
        <ele>334.7</ele>
        <time>2023-12-07T07:55:13Z</time>
      </trkpt>
      <trkpt lat="48.70746" lon="7.16273">
        <ele>336.4</ele>
        <time>2023-12-07T07:55:22Z</time>
      </trkpt>
      <trkpt lat="48.70733" lon="7.16295">
        <ele>338.1</ele>
        <time>2023-12-07T07:55:32Z</time>
      </trkpt>
      <trkpt lat="48.70721" lon="7.16316">
        <ele>339.5</ele>
        <time>2023-12-07T07:55:40Z</time>
      </trkpt>
      <trkpt lat="48.7071" lon="7.16337">
        <ele>341</ele>
        <time>2023-12-07T07:55:49Z</time>
      </trkpt>
      <trkpt lat="48.70698" lon="7.16359">
        <ele>342.5</ele>
        <time>2023-12-07T07:55:59Z</time>
      </trkpt>
      <trkpt lat="48.70684" lon="7.1638">
        <ele>344.1</ele>
        <time>2023-12-07T07:56:08Z</time>
      </trkpt>
      <trkpt lat="48.70672" lon="7.16403">
        <ele>345.8</ele>
        <time>2023-12-07T07:56:18Z</time>
      </trkpt>
      <trkpt lat="48.7066" lon="7.16425">
        <ele>347.2</ele>
        <time>2023-12-07T07:56:26Z</time>
      </trkpt>
      <trkpt lat="48.70649" lon="7.16448">
        <ele>348</ele>
        <time>2023-12-07T07:56:36Z</time>
      </trkpt>
      <trkpt lat="48.70637" lon="7.1647">
        <ele>348.8</ele>
        <time>2023-12-07T07:56:45Z</time>
      </trkpt>
      <trkpt lat="48.70624" lon="7.16493">
        <ele>349.9</ele>
        <time>2023-12-07T07:56:54Z</time>
      </trkpt>
      <trkpt lat="48.70611" lon="7.16512">
        <ele>351</ele>
        <time>2023-12-07T07:57:02Z</time>
      </trkpt>
      <trkpt lat="48.706" lon="7.16534">
        <ele>351.9</ele>
        <time>2023-12-07T07:57:11Z</time>
      </trkpt>
      <trkpt lat="48.70585" lon="7.16555">
        <ele>352.9</ele>
        <time>2023-12-07T07:57:20Z</time>
      </trkpt>
      <trkpt lat="48.70572" lon="7.16575">
        <ele>353.7</ele>
        <time>2023-12-07T07:57:27Z</time>
      </trkpt>
      <trkpt lat="48.7056" lon="7.16596">
        <ele>354.6</ele>
        <time>2023-12-07T07:57:36Z</time>
      </trkpt>
      <trkpt lat="48.70546" lon="7.16616">
        <ele>355.4</ele>
        <time>2023-12-07T07:57:44Z</time>
      </trkpt>
      <trkpt lat="48.70533" lon="7.16636">
        <ele>356.1</ele>
        <time>2023-12-07T07:57:52Z</time>
      </trkpt>
      <trkpt lat="48.70521" lon="7.16659">
        <ele>356.6</ele>
        <time>2023-12-07T07:58:00Z</time>
      </trkpt>
      <trkpt lat="48.7051" lon="7.16681">
        <ele>356.7</ele>
        <time>2023-12-07T07:58:08Z</time>
      </trkpt>
      <trkpt lat="48.70498" lon="7.16704">
        <ele>356.3</ele>
        <time>2023-12-07T07:58:18Z</time>
      </trkpt>
      <trkpt lat="48.70486" lon="7.16727">
        <ele>355.7</ele>
        <time>2023-12-07T07:58:27Z</time>
      </trkpt>
      <trkpt lat="48.70472" lon="7.16747">
        <ele>355</ele>
        <time>2023-12-07T07:58:35Z</time>
      </trkpt>
      <trkpt lat="48.70459" lon="7.16768">
        <ele>354.2</ele>
        <time>2023-12-07T07:58:43Z</time>
      </trkpt>
      <trkpt lat="48.70446" lon="7.16788">
        <ele>353.6</ele>
        <time>2023-12-07T07:58:51Z</time>
      </trkpt>
      <trkpt lat="48.70433" lon="7.16806">
        <ele>353.4</ele>
        <time>2023-12-07T07:58:59Z</time>
      </trkpt>
      <trkpt lat="48.70419" lon="7.16827">
        <ele>353.4</ele>
        <time>2023-12-07T07:59:07Z</time>
      </trkpt>
      <trkpt lat="48.70404" lon="7.16846">
        <ele>353.6</ele>
        <time>2023-12-07T07:59:16Z</time>
      </trkpt>
      <trkpt lat="48.70387" lon="7.1686">
        <ele>353.9</ele>
        <time>2023-12-07T07:59:25Z</time>
      </trkpt>
      <trkpt lat="48.70371" lon="7.16873">
        <ele>354.4</ele>
        <time>2023-12-07T07:59:34Z</time>
      </trkpt>
      <trkpt lat="48.70353" lon="7.16885">
        <ele>355.1</ele>
        <time>2023-12-07T07:59:43Z</time>
      </trkpt>
      <trkpt lat="48.70335" lon="7.16895">
        <ele>356.4</ele>
        <time>2023-12-07T07:59:52Z</time>
      </trkpt>
      <trkpt lat="48.70318" lon="7.16906">
        <ele>357.9</ele>
        <time>2023-12-07T08:00:00Z</time>
      </trkpt>
      <trkpt lat="48.70301" lon="7.16917">
        <ele>359.6</ele>
        <time>2023-12-07T08:00:09Z</time>
      </trkpt>
      <trkpt lat="48.70284" lon="7.16928">
        <ele>361</ele>
        <time>2023-12-07T08:00:18Z</time>
      </trkpt>
      <trkpt lat="48.70267" lon="7.1694">
        <ele>362.4</ele>
        <time>2023-12-07T08:00:27Z</time>
      </trkpt>
      <trkpt lat="48.70251" lon="7.16953">
        <ele>363.6</ele>
        <time>2023-12-07T08:00:35Z</time>
      </trkpt>
      <trkpt lat="48.70233" lon="7.16966">
        <ele>364.7</ele>
        <time>2023-12-07T08:00:44Z</time>
      </trkpt>
      <trkpt lat="48.70218" lon="7.1698">
        <ele>365.6</ele>
        <time>2023-12-07T08:00:52Z</time>
      </trkpt>
      <trkpt lat="48.70201" lon="7.16992">
        <ele>366.7</ele>
        <time>2023-12-07T08:01:00Z</time>
      </trkpt>
      <trkpt lat="48.70184" lon="7.17005">
        <ele>368</ele>
        <time>2023-12-07T08:01:08Z</time>
      </trkpt>
      <trkpt lat="48.70166" lon="7.17017">
        <ele>369.5</ele>
        <time>2023-12-07T08:01:18Z</time>
      </trkpt>
      <trkpt lat="48.7015" lon="7.17029">
        <ele>370.9</ele>
        <time>2023-12-07T08:01:28Z</time>
      </trkpt>
      <trkpt lat="48.70135" lon="7.17047">
        <ele>372.6</ele>
        <time>2023-12-07T08:01:37Z</time>
      </trkpt>
      <trkpt lat="48.70126" lon="7.17072">
        <ele>373.4</ele>
        <time>2023-12-07T08:01:46Z</time>
      </trkpt>
      <trkpt lat="48.70111" lon="7.17086">
        <ele>374.8</ele>
        <time>2023-12-07T08:01:56Z</time>
      </trkpt>
      <trkpt lat="48.70096" lon="7.17102">
        <ele>376.2</ele>
        <time>2023-12-07T08:02:06Z</time>
      </trkpt>
      <trkpt lat="48.70081" lon="7.17117">
        <ele>377.7</ele>
        <time>2023-12-07T08:02:15Z</time>
      </trkpt>
      <trkpt lat="48.70065" lon="7.17135">
        <ele>379.3</ele>
        <time>2023-12-07T08:02:24Z</time>
      </trkpt>
      <trkpt lat="48.70049" lon="7.17151">
        <ele>381</ele>
        <time>2023-12-07T08:02:33Z</time>
      </trkpt>
      <trkpt lat="48.70034" lon="7.17167">
        <ele>382.7</ele>
        <time>2023-12-07T08:02:43Z</time>
      </trkpt>
      <trkpt lat="48.70019" lon="7.17185">
        <ele>384.4</ele>
        <time>2023-12-07T08:02:53Z</time>
      </trkpt>
      <trkpt lat="48.70002" lon="7.17202">
        <ele>386.1</ele>
        <time>2023-12-07T08:03:02Z</time>
      </trkpt>
      <trkpt lat="48.69987" lon="7.17222">
        <ele>387.8</ele>
        <time>2023-12-07T08:03:10Z</time>
      </trkpt>
      <trkpt lat="48.69972" lon="7.1724">
        <ele>389.3</ele>
        <time>2023-12-07T08:03:18Z</time>
      </trkpt>
      <trkpt lat="48.69958" lon="7.1726">
        <ele>390.6</ele>
        <time>2023-12-07T08:03:26Z</time>
      </trkpt>
      <trkpt lat="48.69945" lon="7.1728">
        <ele>391.7</ele>
        <time>2023-12-07T08:03:34Z</time>
      </trkpt>
      <trkpt lat="48.69931" lon="7.17297">
        <ele>392.6</ele>
        <time>2023-12-07T08:03:42Z</time>
      </trkpt>
      <trkpt lat="48.69916" lon="7.17318">
        <ele>393.6</ele>
        <time>2023-12-07T08:03:51Z</time>
      </trkpt>
      <trkpt lat="48.69903" lon="7.17338">
        <ele>394.6</ele>
        <time>2023-12-07T08:03:58Z</time>
      </trkpt>
      <trkpt lat="48.69889" lon="7.17358">
        <ele>395.8</ele>
        <time>2023-12-07T08:04:06Z</time>
      </trkpt>
      <trkpt lat="48.69876" lon="7.17377">
        <ele>397</ele>
        <time>2023-12-07T08:04:14Z</time>
      </trkpt>
      <trkpt lat="48.6986" lon="7.17391">
        <ele>397.9</ele>
        <time>2023-12-07T08:04:22Z</time>
      </trkpt>
      <trkpt lat="48.69847" lon="7.1737">
        <ele>397.7</ele>
        <time>2023-12-07T08:04:29Z</time>
      </trkpt>
      <trkpt lat="48.69837" lon="7.17345">
        <ele>397.6</ele>
        <time>2023-12-07T08:04:36Z</time>
      </trkpt>
      <trkpt lat="48.69822" lon="7.17332">
        <ele>398.8</ele>
        <time>2023-12-07T08:04:45Z</time>
      </trkpt>
      <trkpt lat="48.69804" lon="7.17341">
        <ele>398.8</ele>
        <time>2023-12-07T08:04:53Z</time>
      </trkpt>
      <trkpt lat="48.69787" lon="7.17352">
        <ele>398.8</ele>
        <time>2023-12-07T08:05:05Z</time>
      </trkpt>
      <trkpt lat="48.69769" lon="7.1736">
        <ele>398.9</ele>
        <time>2023-12-07T08:05:16Z</time>
      </trkpt>
      <trkpt lat="48.6975" lon="7.17372">
        <ele>399</ele>
        <time>2023-12-07T08:05:25Z</time>
      </trkpt>
      <trkpt lat="48.69733" lon="7.17383">
        <ele>399</ele>
        <time>2023-12-07T08:05:33Z</time>
      </trkpt>
      <trkpt lat="48.69716" lon="7.17395">
        <ele>399.2</ele>
        <time>2023-12-07T08:05:41Z</time>
      </trkpt>
      <trkpt lat="48.69701" lon="7.17409">
        <ele>399.3</ele>
        <time>2023-12-07T08:05:49Z</time>
      </trkpt>
      <trkpt lat="48.69683" lon="7.17424">
        <ele>399.5</ele>
        <time>2023-12-07T08:05:56Z</time>
      </trkpt>
      <trkpt lat="48.69665" lon="7.17439">
        <ele>399.9</ele>
        <time>2023-12-07T08:06:05Z</time>
      </trkpt>
      <trkpt lat="48.69647" lon="7.17455">
        <ele>400.4</ele>
        <time>2023-12-07T08:06:13Z</time>
      </trkpt>
      <trkpt lat="48.6963" lon="7.17469">
        <ele>401</ele>
        <time>2023-12-07T08:06:21Z</time>
      </trkpt>
      <trkpt lat="48.69613" lon="7.17486">
        <ele>401.9</ele>
        <time>2023-12-07T08:06:29Z</time>
      </trkpt>
      <trkpt lat="48.69598" lon="7.17504">
        <ele>402.7</ele>
        <time>2023-12-07T08:06:39Z</time>
      </trkpt>
      <trkpt lat="48.69583" lon="7.17524">
        <ele>403.4</ele>
        <time>2023-12-07T08:06:46Z</time>
      </trkpt>
      <trkpt lat="48.69566" lon="7.17539">
        <ele>403.7</ele>
        <time>2023-12-07T08:06:53Z</time>
      </trkpt>
      <trkpt lat="48.6955" lon="7.17555">
        <ele>403.9</ele>
        <time>2023-12-07T08:07:03Z</time>
      </trkpt>
      <trkpt lat="48.69534" lon="7.1757">
        <ele>404</ele>
        <time>2023-12-07T08:07:12Z</time>
      </trkpt>
      <trkpt lat="48.69519" lon="7.17586">
        <ele>403.9</ele>
        <time>2023-12-07T08:07:20Z</time>
      </trkpt>
      <trkpt lat="48.69505" lon="7.17602">
        <ele>403.8</ele>
        <time>2023-12-07T08:07:30Z</time>
      </trkpt>
      <trkpt lat="48.69488" lon="7.17619">
        <ele>403.8</ele>
        <time>2023-12-07T08:07:39Z</time>
      </trkpt>
      <trkpt lat="48.69471" lon="7.17634">
        <ele>403.8</ele>
        <time>2023-12-07T08:07:48Z</time>
      </trkpt>
      <trkpt lat="48.69454" lon="7.17646">
        <ele>404.2</ele>
        <time>2023-12-07T08:07:57Z</time>
      </trkpt>
      <trkpt lat="48.69438" lon="7.17661">
        <ele>404.3</ele>
        <time>2023-12-07T08:08:07Z</time>
      </trkpt>
      <trkpt lat="48.69425" lon="7.17679">
        <ele>404.4</ele>
        <time>2023-12-07T08:08:16Z</time>
      </trkpt>
      <trkpt lat="48.69412" lon="7.17702">
        <ele>404.6</ele>
        <time>2023-12-07T08:08:23Z</time>
      </trkpt>
      <trkpt lat="48.69401" lon="7.17729">
        <ele>404.8</ele>
        <time>2023-12-07T08:08:31Z</time>
      </trkpt>
      <trkpt lat="48.69392" lon="7.17752">
        <ele>405.1</ele>
        <time>2023-12-07T08:08:38Z</time>
      </trkpt>
      <trkpt lat="48.69382" lon="7.17777">
        <ele>405.4</ele>
        <time>2023-12-07T08:08:45Z</time>
      </trkpt>
      <trkpt lat="48.69375" lon="7.17803">
        <ele>405.9</ele>
        <time>2023-12-07T08:08:53Z</time>
      </trkpt>
      <trkpt lat="48.69365" lon="7.17829">
        <ele>406.8</ele>
        <time>2023-12-07T08:09:02Z</time>
      </trkpt>
      <trkpt lat="48.69355" lon="7.17853">
        <ele>407.5</ele>
        <time>2023-12-07T08:09:10Z</time>
      </trkpt>
      <trkpt lat="48.69342" lon="7.17873">
        <ele>408.3</ele>
        <time>2023-12-07T08:09:19Z</time>
      </trkpt>
      <trkpt lat="48.69333" lon="7.17899">
        <ele>409.3</ele>
        <time>2023-12-07T08:09:27Z</time>
      </trkpt>
      <trkpt lat="48.6932" lon="7.17924">
        <ele>410.4</ele>
        <time>2023-12-07T08:09:35Z</time>
      </trkpt>
      <trkpt lat="48.69309" lon="7.17946">
        <ele>411.2</ele>
        <time>2023-12-07T08:09:44Z</time>
      </trkpt>
      <trkpt lat="48.69295" lon="7.17966">
        <ele>411.9</ele>
        <time>2023-12-07T08:09:54Z</time>
      </trkpt>
      <trkpt lat="48.69284" lon="7.17989">
        <ele>412.2</ele>
        <time>2023-12-07T08:10:02Z</time>
      </trkpt>
      <trkpt lat="48.6927" lon="7.18008">
        <ele>412.6</ele>
        <time>2023-12-07T08:10:11Z</time>
      </trkpt>
      <trkpt lat="48.69257" lon="7.18029">
        <ele>412.8</ele>
        <time>2023-12-07T08:10:20Z</time>
      </trkpt>
      <trkpt lat="48.69243" lon="7.1805">
        <ele>413</ele>
        <time>2023-12-07T08:10:29Z</time>
      </trkpt>
      <trkpt lat="48.6923" lon="7.18072">
        <ele>413</ele>
        <time>2023-12-07T08:10:36Z</time>
      </trkpt>
      <trkpt lat="48.69219" lon="7.18095">
        <ele>413.1</ele>
        <time>2023-12-07T08:10:43Z</time>
      </trkpt>
      <trkpt lat="48.69211" lon="7.1812">
        <ele>413</ele>
        <time>2023-12-07T08:10:50Z</time>
      </trkpt>
      <trkpt lat="48.69201" lon="7.18143">
        <ele>412.7</ele>
        <time>2023-12-07T08:10:57Z</time>
      </trkpt>
      <trkpt lat="48.69192" lon="7.18169">
        <ele>412.5</ele>
        <time>2023-12-07T08:11:05Z</time>
      </trkpt>
      <trkpt lat="48.69183" lon="7.18196">
        <ele>412.2</ele>
        <time>2023-12-07T08:11:14Z</time>
      </trkpt>
      <trkpt lat="48.69178" lon="7.18226">
        <ele>411.7</ele>
        <time>2023-12-07T08:11:22Z</time>
      </trkpt>
      <trkpt lat="48.69172" lon="7.18253">
        <ele>411.2</ele>
        <time>2023-12-07T08:11:29Z</time>
      </trkpt>
      <trkpt lat="48.69166" lon="7.18282">
        <ele>410.7</ele>
        <time>2023-12-07T08:11:37Z</time>
      </trkpt>
      <trkpt lat="48.6916" lon="7.1831">
        <ele>411</ele>
        <time>2023-12-07T08:11:45Z</time>
      </trkpt>
      <trkpt lat="48.6916" lon="7.18339">
        <ele>411.6</ele>
        <time>2023-12-07T08:11:54Z</time>
      </trkpt>
      <trkpt lat="48.69157" lon="7.18368">
        <ele>412.2</ele>
        <time>2023-12-07T08:12:03Z</time>
      </trkpt>
      <trkpt lat="48.69151" lon="7.18396">
        <ele>412.8</ele>
        <time>2023-12-07T08:12:10Z</time>
      </trkpt>
      <trkpt lat="48.69145" lon="7.18422">
        <ele>413.7</ele>
        <time>2023-12-07T08:12:19Z</time>
      </trkpt>
      <trkpt lat="48.69144" lon="7.18451">
        <ele>414.9</ele>
        <time>2023-12-07T08:12:28Z</time>
      </trkpt>
      <trkpt lat="48.69141" lon="7.18478">
        <ele>415.8</ele>
        <time>2023-12-07T08:12:36Z</time>
      </trkpt>
      <trkpt lat="48.69137" lon="7.18506">
        <ele>416.3</ele>
        <time>2023-12-07T08:12:44Z</time>
      </trkpt>
      <trkpt lat="48.69139" lon="7.18536">
        <ele>416.8</ele>
        <time>2023-12-07T08:12:51Z</time>
      </trkpt>
      <trkpt lat="48.69138" lon="7.18564">
        <ele>416.9</ele>
        <time>2023-12-07T08:12:58Z</time>
      </trkpt>
      <trkpt lat="48.69136" lon="7.18592">
        <ele>416.6</ele>
        <time>2023-12-07T08:13:05Z</time>
      </trkpt>
      <trkpt lat="48.69133" lon="7.1862">
        <ele>415.7</ele>
        <time>2023-12-07T08:13:14Z</time>
      </trkpt>
      <trkpt lat="48.69129" lon="7.18648">
        <ele>414</ele>
        <time>2023-12-07T08:13:21Z</time>
      </trkpt>
      <trkpt lat="48.69123" lon="7.18663">
        <ele>413.1</ele>
        <time>2023-12-07T08:13:26Z</time>
      </trkpt>
      <trkpt lat="48.69103" lon="7.18662">
        <ele>411.6</ele>
        <time>2023-12-07T08:13:34Z</time>
      </trkpt>
      <trkpt lat="48.69084" lon="7.18655">
        <ele>411.1</ele>
        <time>2023-12-07T08:13:41Z</time>
      </trkpt>
      <trkpt lat="48.69066" lon="7.18646">
        <ele>410.6</ele>
        <time>2023-12-07T08:13:48Z</time>
      </trkpt>
      <trkpt lat="48.6905" lon="7.18629">
        <ele>410.1</ele>
        <time>2023-12-07T08:13:56Z</time>
      </trkpt>
      <trkpt lat="48.69034" lon="7.18616">
        <ele>409.7</ele>
        <time>2023-12-07T08:14:03Z</time>
      </trkpt>
      <trkpt lat="48.69019" lon="7.18597">
        <ele>409.1</ele>
        <time>2023-12-07T08:14:11Z</time>
      </trkpt>
      <trkpt lat="48.69003" lon="7.18583">
        <ele>408.7</ele>
        <time>2023-12-07T08:14:18Z</time>
      </trkpt>
      <trkpt lat="48.68987" lon="7.18571">
        <ele>408.2</ele>
        <time>2023-12-07T08:14:26Z</time>
      </trkpt>
      <trkpt lat="48.68972" lon="7.18555">
        <ele>407.7</ele>
        <time>2023-12-07T08:14:33Z</time>
      </trkpt>
      <trkpt lat="48.68957" lon="7.18535">
        <ele>407.2</ele>
        <time>2023-12-07T08:14:41Z</time>
      </trkpt>
      <trkpt lat="48.68942" lon="7.18517">
        <ele>406.7</ele>
        <time>2023-12-07T08:14:49Z</time>
      </trkpt>
      <trkpt lat="48.68928" lon="7.185">
        <ele>406.3</ele>
        <time>2023-12-07T08:14:57Z</time>
      </trkpt>
      <trkpt lat="48.68918" lon="7.18475">
        <ele>405.8</ele>
        <time>2023-12-07T08:15:05Z</time>
      </trkpt>
      <trkpt lat="48.68908" lon="7.18449">
        <ele>405.3</ele>
        <time>2023-12-07T08:15:13Z</time>
      </trkpt>
      <trkpt lat="48.68901" lon="7.18424">
        <ele>404.8</ele>
        <time>2023-12-07T08:15:20Z</time>
      </trkpt>
      <trkpt lat="48.68896" lon="7.18395">
        <ele>404.3</ele>
        <time>2023-12-07T08:15:28Z</time>
      </trkpt>
      <trkpt lat="48.68893" lon="7.18366">
        <ele>403.8</ele>
        <time>2023-12-07T08:15:36Z</time>
      </trkpt>
      <trkpt lat="48.68891" lon="7.18338">
        <ele>403.3</ele>
        <time>2023-12-07T08:15:44Z</time>
      </trkpt>
      <trkpt lat="48.68884" lon="7.18309">
        <ele>402.8</ele>
        <time>2023-12-07T08:15:52Z</time>
      </trkpt>
      <trkpt lat="48.68877" lon="7.1828">
        <ele>402.3</ele>
        <time>2023-12-07T08:16:00Z</time>
      </trkpt>
      <trkpt lat="48.68874" lon="7.18254">
        <ele>401.8</ele>
        <time>2023-12-07T08:16:08Z</time>
      </trkpt>
      <trkpt lat="48.68873" lon="7.18226">
        <ele>401.3</ele>
        <time>2023-12-07T08:16:15Z</time>
      </trkpt>
      <trkpt lat="48.68873" lon="7.18198">
        <ele>400.9</ele>
        <time>2023-12-07T08:16:22Z</time>
      </trkpt>
      <trkpt lat="48.68871" lon="7.18171">
        <ele>400.4</ele>
        <time>2023-12-07T08:16:29Z</time>
      </trkpt>
      <trkpt lat="48.68871" lon="7.18144">
        <ele>399.9</ele>
        <time>2023-12-07T08:16:37Z</time>
      </trkpt>
      <trkpt lat="48.68873" lon="7.18116">
        <ele>399.5</ele>
        <time>2023-12-07T08:16:45Z</time>
      </trkpt>
      <trkpt lat="48.6888" lon="7.18088">
        <ele>399</ele>
        <time>2023-12-07T08:16:53Z</time>
      </trkpt>
      <trkpt lat="48.68887" lon="7.18063">
        <ele>398.5</ele>
        <time>2023-12-07T08:17:00Z</time>
      </trkpt>
      <trkpt lat="48.68896" lon="7.18037">
        <ele>398</ele>
        <time>2023-12-07T08:17:07Z</time>
      </trkpt>
      <trkpt lat="48.6891" lon="7.18017">
        <ele>397.5</ele>
        <time>2023-12-07T08:17:14Z</time>
      </trkpt>
      <trkpt lat="48.68924" lon="7.17996">
        <ele>397</ele>
        <time>2023-12-07T08:17:21Z</time>
      </trkpt>
      <trkpt lat="48.68934" lon="7.17975">
        <ele>396.5</ele>
        <time>2023-12-07T08:17:28Z</time>
      </trkpt>
      <trkpt lat="48.68944" lon="7.17951">
        <ele>396.1</ele>
        <time>2023-12-07T08:17:36Z</time>
      </trkpt>
      <trkpt lat="48.68955" lon="7.17928">
        <ele>395.6</ele>
        <time>2023-12-07T08:17:43Z</time>
      </trkpt>
      <trkpt lat="48.68966" lon="7.17905">
        <ele>395.1</ele>
        <time>2023-12-07T08:17:51Z</time>
      </trkpt>
      <trkpt lat="48.68978" lon="7.17881">
        <ele>394.6</ele>
        <time>2023-12-07T08:17:59Z</time>
      </trkpt>
      <trkpt lat="48.68991" lon="7.17856">
        <ele>394</ele>
        <time>2023-12-07T08:18:07Z</time>
      </trkpt>
      <trkpt lat="48.69003" lon="7.17832">
        <ele>393.5</ele>
        <time>2023-12-07T08:18:14Z</time>
      </trkpt>
      <trkpt lat="48.69016" lon="7.17809">
        <ele>393</ele>
        <time>2023-12-07T08:18:21Z</time>
      </trkpt>
      <trkpt lat="48.69031" lon="7.17789">
        <ele>392.5</ele>
        <time>2023-12-07T08:18:28Z</time>
      </trkpt>
      <trkpt lat="48.69046" lon="7.17769">
        <ele>392</ele>
        <time>2023-12-07T08:18:35Z</time>
      </trkpt>
      <trkpt lat="48.69062" lon="7.17752">
        <ele>391.5</ele>
        <time>2023-12-07T08:18:43Z</time>
      </trkpt>
      <trkpt lat="48.69077" lon="7.17738">
        <ele>391.1</ele>
        <time>2023-12-07T08:18:49Z</time>
      </trkpt>
      <trkpt lat="48.69096" lon="7.17723">
        <ele>390.6</ele>
        <time>2023-12-07T08:18:56Z</time>
      </trkpt>
      <trkpt lat="48.69111" lon="7.17706">
        <ele>390.2</ele>
        <time>2023-12-07T08:19:03Z</time>
      </trkpt>
      <trkpt lat="48.69125" lon="7.17684">
        <ele>389.7</ele>
        <time>2023-12-07T08:19:11Z</time>
      </trkpt>
      <trkpt lat="48.69138" lon="7.17663">
        <ele>389.2</ele>
        <time>2023-12-07T08:19:18Z</time>
      </trkpt>
      <trkpt lat="48.69149" lon="7.17641">
        <ele>388.8</ele>
        <time>2023-12-07T08:19:25Z</time>
      </trkpt>
      <trkpt lat="48.69161" lon="7.17617">
        <ele>388.3</ele>
        <time>2023-12-07T08:19:33Z</time>
      </trkpt>
      <trkpt lat="48.69168" lon="7.1759">
        <ele>387.9</ele>
        <time>2023-12-07T08:19:42Z</time>
      </trkpt>
      <trkpt lat="48.69171" lon="7.1756">
        <ele>387.4</ele>
        <time>2023-12-07T08:19:51Z</time>
      </trkpt>
      <trkpt lat="48.6917" lon="7.17531">
        <ele>387</ele>
        <time>2023-12-07T08:19:58Z</time>
      </trkpt>
      <trkpt lat="48.69169" lon="7.17502">
        <ele>386.5</ele>
        <time>2023-12-07T08:20:06Z</time>
      </trkpt>
      <trkpt lat="48.69172" lon="7.17472">
        <ele>386.1</ele>
        <time>2023-12-07T08:20:14Z</time>
      </trkpt>
      <trkpt lat="48.69175" lon="7.17445">
        <ele>385.6</ele>
        <time>2023-12-07T08:20:21Z</time>
      </trkpt>
      <trkpt lat="48.6918" lon="7.17415">
        <ele>385.2</ele>
        <time>2023-12-07T08:20:29Z</time>
      </trkpt>
      <trkpt lat="48.69188" lon="7.1739">
        <ele>384.7</ele>
        <time>2023-12-07T08:20:38Z</time>
      </trkpt>
      <trkpt lat="48.69196" lon="7.17365">
        <ele>384.3</ele>
        <time>2023-12-07T08:20:46Z</time>
      </trkpt>
      <trkpt lat="48.6921" lon="7.17347">
        <ele>383.9</ele>
        <time>2023-12-07T08:20:52Z</time>
      </trkpt>
      <trkpt lat="48.69228" lon="7.17337">
        <ele>383.4</ele>
        <time>2023-12-07T08:20:59Z</time>
      </trkpt>
      <trkpt lat="48.69246" lon="7.17333">
        <ele>383.2</ele>
        <time>2023-12-07T08:21:08Z</time>
      </trkpt>
      <trkpt lat="48.69266" lon="7.17328">
        <ele>383.1</ele>
        <time>2023-12-07T08:21:17Z</time>
      </trkpt>
      <trkpt lat="48.69284" lon="7.17324">
        <ele>382.7</ele>
        <time>2023-12-07T08:21:26Z</time>
      </trkpt>
      <trkpt lat="48.69303" lon="7.17317">
        <ele>382.1</ele>
        <time>2023-12-07T08:21:34Z</time>
      </trkpt>
      <trkpt lat="48.69322" lon="7.17311">
        <ele>381.6</ele>
        <time>2023-12-07T08:21:42Z</time>
      </trkpt>
      <trkpt lat="48.69342" lon="7.17305">
        <ele>381.4</ele>
        <time>2023-12-07T08:21:50Z</time>
      </trkpt>
      <trkpt lat="48.6936" lon="7.173">
        <ele>381.5</ele>
        <time>2023-12-07T08:21:57Z</time>
      </trkpt>
      <trkpt lat="48.69378" lon="7.17293">
        <ele>381.8</ele>
        <time>2023-12-07T08:22:04Z</time>
      </trkpt>
      <trkpt lat="48.69394" lon="7.17281">
        <ele>382.1</ele>
        <time>2023-12-07T08:22:13Z</time>
      </trkpt>
      <trkpt lat="48.69412" lon="7.17267">
        <ele>382.3</ele>
        <time>2023-12-07T08:22:24Z</time>
      </trkpt>
      <trkpt lat="48.69427" lon="7.17253">
        <ele>382.5</ele>
        <time>2023-12-07T08:22:31Z</time>
      </trkpt>
      <trkpt lat="48.69443" lon="7.17239">
        <ele>383</ele>
        <time>2023-12-07T08:22:39Z</time>
      </trkpt>
      <trkpt lat="48.69458" lon="7.17222">
        <ele>383.2</ele>
        <time>2023-12-07T08:22:48Z</time>
      </trkpt>
      <trkpt lat="48.69472" lon="7.17201">
        <ele>382.7</ele>
        <time>2023-12-07T08:22:56Z</time>
      </trkpt>
      <trkpt lat="48.69488" lon="7.17184">
        <ele>382.1</ele>
        <time>2023-12-07T08:23:03Z</time>
      </trkpt>
      <trkpt lat="48.69504" lon="7.17166">
        <ele>381.6</ele>
        <time>2023-12-07T08:23:10Z</time>
      </trkpt>
      <trkpt lat="48.69516" lon="7.17145">
        <ele>381.3</ele>
        <time>2023-12-07T08:23:17Z</time>
      </trkpt>
      <trkpt lat="48.6953" lon="7.17122">
        <ele>381.1</ele>
        <time>2023-12-07T08:23:25Z</time>
      </trkpt>
      <trkpt lat="48.69542" lon="7.171">
        <ele>381.1</ele>
        <time>2023-12-07T08:23:33Z</time>
      </trkpt>
      <trkpt lat="48.69554" lon="7.17076">
        <ele>381.1</ele>
        <time>2023-12-07T08:23:42Z</time>
      </trkpt>
      <trkpt lat="48.69559" lon="7.1705">
        <ele>381.4</ele>
        <time>2023-12-07T08:23:50Z</time>
      </trkpt>
      <trkpt lat="48.69556" lon="7.17022">
        <ele>381.8</ele>
        <time>2023-12-07T08:23:56Z</time>
      </trkpt>
      <trkpt lat="48.69553" lon="7.16994">
        <ele>381.7</ele>
        <time>2023-12-07T08:24:02Z</time>
      </trkpt>
      <trkpt lat="48.69545" lon="7.16966">
        <ele>381.5</ele>
        <time>2023-12-07T08:24:10Z</time>
      </trkpt>
      <trkpt lat="48.69536" lon="7.16942">
        <ele>381.3</ele>
        <time>2023-12-07T08:24:17Z</time>
      </trkpt>
      <trkpt lat="48.69526" lon="7.16918">
        <ele>381</ele>
        <time>2023-12-07T08:24:24Z</time>
      </trkpt>
      <trkpt lat="48.69516" lon="7.16895">
        <ele>380.6</ele>
        <time>2023-12-07T08:24:31Z</time>
      </trkpt>
      <trkpt lat="48.69507" lon="7.16871">
        <ele>380</ele>
        <time>2023-12-07T08:24:38Z</time>
      </trkpt>
      <trkpt lat="48.69498" lon="7.16847">
        <ele>379.3</ele>
        <time>2023-12-07T08:24:44Z</time>
      </trkpt>
      <trkpt lat="48.69491" lon="7.16822">
        <ele>378.6</ele>
        <time>2023-12-07T08:24:50Z</time>
      </trkpt>
      <trkpt lat="48.69486" lon="7.16793">
        <ele>377.9</ele>
        <time>2023-12-07T08:24:57Z</time>
      </trkpt>
      <trkpt lat="48.69484" lon="7.16762">
        <ele>377.2</ele>
        <time>2023-12-07T08:25:04Z</time>
      </trkpt>
      <trkpt lat="48.69481" lon="7.16734">
        <ele>376.5</ele>
        <time>2023-12-07T08:25:11Z</time>
      </trkpt>
      <trkpt lat="48.69482" lon="7.16705">
        <ele>375.7</ele>
        <time>2023-12-07T08:25:18Z</time>
      </trkpt>
      <trkpt lat="48.69484" lon="7.1669">
        <ele>375.4</ele>
        <time>2023-12-07T08:25:23Z</time>
      </trkpt>
      <trkpt lat="48.69488" lon="7.16689">
        <ele>376.9</ele>
        <time>2023-12-07T08:25:25Z</time>
      </trkpt>
      <trkpt lat="48.69491" lon="7.16692">
        <ele>377.8</ele>
        <time>2023-12-07T08:25:27Z</time>
      </trkpt>
      <trkpt lat="48.69493" lon="7.16698">
        <ele>378.6</ele>
        <time>2023-12-07T08:25:30Z</time>
      </trkpt>
      <trkpt lat="48.69504" lon="7.1672">
        <ele>380</ele>
        <time>2023-12-07T08:25:38Z</time>
      </trkpt>
      <trkpt lat="48.69518" lon="7.16741">
        <ele>381.2</ele>
        <time>2023-12-07T08:25:46Z</time>
      </trkpt>
      <trkpt lat="48.69531" lon="7.1676">
        <ele>383.2</ele>
        <time>2023-12-07T08:25:55Z</time>
      </trkpt>
      <trkpt lat="48.69548" lon="7.16777">
        <ele>384.8</ele>
        <time>2023-12-07T08:26:04Z</time>
      </trkpt>
      <trkpt lat="48.69564" lon="7.16792">
        <ele>385.6</ele>
        <time>2023-12-07T08:26:12Z</time>
      </trkpt>
      <trkpt lat="48.69578" lon="7.16812">
        <ele>385.1</ele>
        <time>2023-12-07T08:26:20Z</time>
      </trkpt>
      <trkpt lat="48.69595" lon="7.16829">
        <ele>384.7</ele>
        <time>2023-12-07T08:26:28Z</time>
      </trkpt>
      <trkpt lat="48.69612" lon="7.16843">
        <ele>384.6</ele>
        <time>2023-12-07T08:26:36Z</time>
      </trkpt>
      <trkpt lat="48.69628" lon="7.16861">
        <ele>384.9</ele>
        <time>2023-12-07T08:26:44Z</time>
      </trkpt>
      <trkpt lat="48.69647" lon="7.16873">
        <ele>385.5</ele>
        <time>2023-12-07T08:26:51Z</time>
      </trkpt>
      <trkpt lat="48.69665" lon="7.16885">
        <ele>386.1</ele>
        <time>2023-12-07T08:26:58Z</time>
      </trkpt>
      <trkpt lat="48.69682" lon="7.16891">
        <ele>386.6</ele>
        <time>2023-12-07T08:27:03Z</time>
      </trkpt>
      <trkpt lat="48.697" lon="7.16899">
        <ele>387</ele>
        <time>2023-12-07T08:27:10Z</time>
      </trkpt>
      <trkpt lat="48.69718" lon="7.16906">
        <ele>387.4</ele>
        <time>2023-12-07T08:27:16Z</time>
      </trkpt>
      <trkpt lat="48.69729" lon="7.16927">
        <ele>388</ele>
        <time>2023-12-07T08:27:23Z</time>
      </trkpt>
      <trkpt lat="48.69739" lon="7.16951">
        <ele>388.6</ele>
        <time>2023-12-07T08:27:30Z</time>
      </trkpt>
      <trkpt lat="48.69747" lon="7.16976">
        <ele>389.3</ele>
        <time>2023-12-07T08:27:37Z</time>
      </trkpt>
      <trkpt lat="48.69753" lon="7.17003">
        <ele>389.8</ele>
        <time>2023-12-07T08:27:44Z</time>
      </trkpt>
      <trkpt lat="48.6976" lon="7.1703">
        <ele>390.4</ele>
        <time>2023-12-07T08:27:51Z</time>
      </trkpt>
      <trkpt lat="48.69768" lon="7.17058">
        <ele>391</ele>
        <time>2023-12-07T08:27:58Z</time>
      </trkpt>
      <trkpt lat="48.69771" lon="7.17087">
        <ele>391.8</ele>
        <time>2023-12-07T08:28:05Z</time>
      </trkpt>
      <trkpt lat="48.69773" lon="7.17118">
        <ele>392.6</ele>
        <time>2023-12-07T08:28:12Z</time>
      </trkpt>
      <trkpt lat="48.69777" lon="7.17145">
        <ele>393.2</ele>
        <time>2023-12-07T08:28:19Z</time>
      </trkpt>
      <trkpt lat="48.69779" lon="7.17175">
        <ele>394</ele>
        <time>2023-12-07T08:28:27Z</time>
      </trkpt>
      <trkpt lat="48.69782" lon="7.17204">
        <ele>394.8</ele>
        <time>2023-12-07T08:28:35Z</time>
      </trkpt>
      <trkpt lat="48.69792" lon="7.17227">
        <ele>395.7</ele>
        <time>2023-12-07T08:28:41Z</time>
      </trkpt>
      <trkpt lat="48.69802" lon="7.17255">
        <ele>396.5</ele>
        <time>2023-12-07T08:28:49Z</time>
      </trkpt>
      <trkpt lat="48.69813" lon="7.17277">
        <ele>397.1</ele>
        <time>2023-12-07T08:28:55Z</time>
      </trkpt>
      <trkpt lat="48.6982" lon="7.17302">
        <ele>397.4</ele>
        <time>2023-12-07T08:29:03Z</time>
      </trkpt>
      <trkpt lat="48.69833" lon="7.17322">
        <ele>397.5</ele>
        <time>2023-12-07T08:29:11Z</time>
      </trkpt>
      <trkpt lat="48.69844" lon="7.17344">
        <ele>397.7</ele>
        <time>2023-12-07T08:29:18Z</time>
      </trkpt>
      <trkpt lat="48.69854" lon="7.1737">
        <ele>397.8</ele>
        <time>2023-12-07T08:29:25Z</time>
      </trkpt>
      <trkpt lat="48.69868" lon="7.17387">
        <ele>398</ele>
        <time>2023-12-07T08:29:32Z</time>
      </trkpt>
      <trkpt lat="48.69873" lon="7.17383">
        <ele>397.6</ele>
        <time>2023-12-07T08:29:33Z</time>
      </trkpt>
      <trkpt lat="48.69888" lon="7.17363">
        <ele>396.4</ele>
        <time>2023-12-07T08:29:41Z</time>
      </trkpt>
      <trkpt lat="48.69902" lon="7.17341">
        <ele>395.1</ele>
        <time>2023-12-07T08:29:48Z</time>
      </trkpt>
      <trkpt lat="48.69915" lon="7.17318">
        <ele>393.9</ele>
        <time>2023-12-07T08:29:55Z</time>
      </trkpt>
      <trkpt lat="48.69929" lon="7.17297">
        <ele>393</ele>
        <time>2023-12-07T08:30:03Z</time>
      </trkpt>
      <trkpt lat="48.69944" lon="7.1728">
        <ele>392</ele>
        <time>2023-12-07T08:30:10Z</time>
      </trkpt>
      <trkpt lat="48.69959" lon="7.1726">
        <ele>390.9</ele>
        <time>2023-12-07T08:30:17Z</time>
      </trkpt>
      <trkpt lat="48.69972" lon="7.17238">
        <ele>389.6</ele>
        <time>2023-12-07T08:30:24Z</time>
      </trkpt>
      <trkpt lat="48.69988" lon="7.17219">
        <ele>388</ele>
        <time>2023-12-07T08:30:31Z</time>
      </trkpt>
      <trkpt lat="48.70004" lon="7.17201">
        <ele>386.2</ele>
        <time>2023-12-07T08:30:38Z</time>
      </trkpt>
      <trkpt lat="48.7002" lon="7.17181">
        <ele>384.5</ele>
        <time>2023-12-07T08:30:45Z</time>
      </trkpt>
      <trkpt lat="48.70035" lon="7.17164">
        <ele>382.8</ele>
        <time>2023-12-07T08:30:52Z</time>
      </trkpt>
      <trkpt lat="48.70052" lon="7.17148">
        <ele>381</ele>
        <time>2023-12-07T08:30:59Z</time>
      </trkpt>
      <trkpt lat="48.70069" lon="7.17132">
        <ele>379.2</ele>
        <time>2023-12-07T08:31:06Z</time>
      </trkpt>
      <trkpt lat="48.70086" lon="7.17117">
        <ele>377.5</ele>
        <time>2023-12-07T08:31:13Z</time>
      </trkpt>
      <trkpt lat="48.70103" lon="7.17099">
        <ele>375.9</ele>
        <time>2023-12-07T08:31:20Z</time>
      </trkpt>
      <trkpt lat="48.70119" lon="7.17084">
        <ele>374.3</ele>
        <time>2023-12-07T08:31:27Z</time>
      </trkpt>
      <trkpt lat="48.70134" lon="7.17064">
        <ele>372.9</ele>
        <time>2023-12-07T08:31:35Z</time>
      </trkpt>
      <trkpt lat="48.70142" lon="7.1704">
        <ele>372.1</ele>
        <time>2023-12-07T08:31:43Z</time>
      </trkpt>
      <trkpt lat="48.70159" lon="7.17024">
        <ele>370.3</ele>
        <time>2023-12-07T08:31:50Z</time>
      </trkpt>
      <trkpt lat="48.70177" lon="7.1701">
        <ele>368.7</ele>
        <time>2023-12-07T08:31:59Z</time>
      </trkpt>
      <trkpt lat="48.70196" lon="7.16995">
        <ele>367.2</ele>
        <time>2023-12-07T08:32:07Z</time>
      </trkpt>
      <trkpt lat="48.70214" lon="7.16984">
        <ele>365.9</ele>
        <time>2023-12-07T08:32:15Z</time>
      </trkpt>
      <trkpt lat="48.7023" lon="7.16973">
        <ele>365</ele>
        <time>2023-12-07T08:32:23Z</time>
      </trkpt>
      <trkpt lat="48.70248" lon="7.16956">
        <ele>363.9</ele>
        <time>2023-12-07T08:32:30Z</time>
      </trkpt>
      <trkpt lat="48.70264" lon="7.16943">
        <ele>362.8</ele>
        <time>2023-12-07T08:32:37Z</time>
      </trkpt>
      <trkpt lat="48.70281" lon="7.16928">
        <ele>361.4</ele>
        <time>2023-12-07T08:32:45Z</time>
      </trkpt>
      <trkpt lat="48.703" lon="7.16917">
        <ele>359.8</ele>
        <time>2023-12-07T08:32:54Z</time>
      </trkpt>
      <trkpt lat="48.70317" lon="7.16906">
        <ele>358.1</ele>
        <time>2023-12-07T08:33:01Z</time>
      </trkpt>
      <trkpt lat="48.70334" lon="7.16895">
        <ele>356.6</ele>
        <time>2023-12-07T08:33:08Z</time>
      </trkpt>
      <trkpt lat="48.70352" lon="7.16886">
        <ele>355.3</ele>
        <time>2023-12-07T08:33:16Z</time>
      </trkpt>
      <trkpt lat="48.70369" lon="7.16876">
        <ele>354.5</ele>
        <time>2023-12-07T08:33:23Z</time>
      </trkpt>
      <trkpt lat="48.70387" lon="7.16865">
        <ele>353.9</ele>
        <time>2023-12-07T08:33:30Z</time>
      </trkpt>
      <trkpt lat="48.70404" lon="7.1685">
        <ele>353.6</ele>
        <time>2023-12-07T08:33:38Z</time>
      </trkpt>
      <trkpt lat="48.70418" lon="7.1683">
        <ele>353.5</ele>
        <time>2023-12-07T08:33:45Z</time>
      </trkpt>
      <trkpt lat="48.70433" lon="7.1681">
        <ele>353.4</ele>
        <time>2023-12-07T08:33:52Z</time>
      </trkpt>
      <trkpt lat="48.70447" lon="7.1679">
        <ele>353.6</ele>
        <time>2023-12-07T08:33:59Z</time>
      </trkpt>
      <trkpt lat="48.70462" lon="7.16772">
        <ele>354.1</ele>
        <time>2023-12-07T08:34:06Z</time>
      </trkpt>
      <trkpt lat="48.70476" lon="7.16752">
        <ele>355</ele>
        <time>2023-12-07T08:34:14Z</time>
      </trkpt>
      <trkpt lat="48.7049" lon="7.1673">
        <ele>355.8</ele>
        <time>2023-12-07T08:34:22Z</time>
      </trkpt>
      <trkpt lat="48.70502" lon="7.16708">
        <ele>356.3</ele>
        <time>2023-12-07T08:34:29Z</time>
      </trkpt>
      <trkpt lat="48.70511" lon="7.16684">
        <ele>356.7</ele>
        <time>2023-12-07T08:34:36Z</time>
      </trkpt>
      <trkpt lat="48.70522" lon="7.16658">
        <ele>356.6</ele>
        <time>2023-12-07T08:34:43Z</time>
      </trkpt>
      <trkpt lat="48.70535" lon="7.16635">
        <ele>356</ele>
        <time>2023-12-07T08:34:50Z</time>
      </trkpt>
      <trkpt lat="48.70548" lon="7.16615">
        <ele>355.3</ele>
        <time>2023-12-07T08:34:57Z</time>
      </trkpt>
      <trkpt lat="48.70561" lon="7.16595">
        <ele>354.5</ele>
        <time>2023-12-07T08:35:04Z</time>
      </trkpt>
      <trkpt lat="48.70575" lon="7.16572">
        <ele>353.5</ele>
        <time>2023-12-07T08:35:11Z</time>
      </trkpt>
      <trkpt lat="48.70589" lon="7.16552">
        <ele>352.7</ele>
        <time>2023-12-07T08:35:18Z</time>
      </trkpt>
      <trkpt lat="48.70601" lon="7.16532">
        <ele>351.8</ele>
        <time>2023-12-07T08:35:25Z</time>
      </trkpt>
      <trkpt lat="48.70614" lon="7.16509">
        <ele>350.8</ele>
        <time>2023-12-07T08:35:33Z</time>
      </trkpt>
      <trkpt lat="48.70626" lon="7.16487">
        <ele>349.6</ele>
        <time>2023-12-07T08:35:40Z</time>
      </trkpt>
      <trkpt lat="48.7064" lon="7.16465">
        <ele>348.6</ele>
        <time>2023-12-07T08:35:47Z</time>
      </trkpt>
      <trkpt lat="48.70652" lon="7.16441">
        <ele>347.7</ele>
        <time>2023-12-07T08:35:54Z</time>
      </trkpt>
      <trkpt lat="48.70663" lon="7.16419">
        <ele>346.8</ele>
        <time>2023-12-07T08:36:01Z</time>
      </trkpt>
      <trkpt lat="48.70676" lon="7.16395">
        <ele>345.2</ele>
        <time>2023-12-07T08:36:08Z</time>
      </trkpt>
      <trkpt lat="48.70686" lon="7.16372">
        <ele>343.6</ele>
        <time>2023-12-07T08:36:15Z</time>
      </trkpt>
      <trkpt lat="48.70699" lon="7.16348">
        <ele>342.1</ele>
        <time>2023-12-07T08:36:22Z</time>
      </trkpt>
      <trkpt lat="48.70711" lon="7.16327">
        <ele>340.5</ele>
        <time>2023-12-07T08:36:29Z</time>
      </trkpt>
      <trkpt lat="48.70724" lon="7.16306">
        <ele>339</ele>
        <time>2023-12-07T08:36:35Z</time>
      </trkpt>
      <trkpt lat="48.70738" lon="7.16283">
        <ele>337.4</ele>
        <time>2023-12-07T08:36:42Z</time>
      </trkpt>
      <trkpt lat="48.7075" lon="7.1626">
        <ele>335.7</ele>
        <time>2023-12-07T08:36:49Z</time>
      </trkpt>
      <trkpt lat="48.70761" lon="7.16239">
        <ele>333.9</ele>
        <time>2023-12-07T08:36:56Z</time>
      </trkpt>
      <trkpt lat="48.70775" lon="7.16217">
        <ele>332.1</ele>
        <time>2023-12-07T08:37:03Z</time>
      </trkpt>
      <trkpt lat="48.7079" lon="7.16195">
        <ele>330.4</ele>
        <time>2023-12-07T08:37:10Z</time>
      </trkpt>
      <trkpt lat="48.70802" lon="7.16175">
        <ele>328.9</ele>
        <time>2023-12-07T08:37:16Z</time>
      </trkpt>
      <trkpt lat="48.70815" lon="7.16154">
        <ele>327.5</ele>
        <time>2023-12-07T08:37:22Z</time>
      </trkpt>
      <trkpt lat="48.70829" lon="7.16134">
        <ele>325.7</ele>
        <time>2023-12-07T08:37:28Z</time>
      </trkpt>
      <trkpt lat="48.70848" lon="7.16128">
        <ele>324.3</ele>
        <time>2023-12-07T08:37:35Z</time>
      </trkpt>
      <trkpt lat="48.70866" lon="7.16133">
        <ele>323.6</ele>
        <time>2023-12-07T08:37:41Z</time>
      </trkpt>
      <trkpt lat="48.70887" lon="7.16139">
        <ele>322.8</ele>
        <time>2023-12-07T08:37:48Z</time>
      </trkpt>
      <trkpt lat="48.70906" lon="7.16144">
        <ele>322.2</ele>
        <time>2023-12-07T08:37:55Z</time>
      </trkpt>
      <trkpt lat="48.70926" lon="7.16148">
        <ele>321.4</ele>
        <time>2023-12-07T08:38:02Z</time>
      </trkpt>
      <trkpt lat="48.70945" lon="7.16154">
        <ele>320.7</ele>
        <time>2023-12-07T08:38:09Z</time>
      </trkpt>
      <trkpt lat="48.70965" lon="7.1616">
        <ele>320</ele>
        <time>2023-12-07T08:38:16Z</time>
      </trkpt>
      <trkpt lat="48.70984" lon="7.16164">
        <ele>319.4</ele>
        <time>2023-12-07T08:38:22Z</time>
      </trkpt>
      <trkpt lat="48.71001" lon="7.16169">
        <ele>318.9</ele>
        <time>2023-12-07T08:38:28Z</time>
      </trkpt>
      <trkpt lat="48.7102" lon="7.16172">
        <ele>318.7</ele>
        <time>2023-12-07T08:38:35Z</time>
      </trkpt>
      <trkpt lat="48.71041" lon="7.16178">
        <ele>318.6</ele>
        <time>2023-12-07T08:38:42Z</time>
      </trkpt>
      <trkpt lat="48.71059" lon="7.16185">
        <ele>318.5</ele>
        <time>2023-12-07T08:38:48Z</time>
      </trkpt>
      <trkpt lat="48.71077" lon="7.16194">
        <ele>318.4</ele>
        <time>2023-12-07T08:38:55Z</time>
      </trkpt>
      <trkpt lat="48.71092" lon="7.16212">
        <ele>318.2</ele>
        <time>2023-12-07T08:39:02Z</time>
      </trkpt>
      <trkpt lat="48.71108" lon="7.16232">
        <ele>318</ele>
        <time>2023-12-07T08:39:09Z</time>
      </trkpt>
      <trkpt lat="48.71124" lon="7.16251">
        <ele>317.9</ele>
        <time>2023-12-07T08:39:16Z</time>
      </trkpt>
      <trkpt lat="48.71139" lon="7.16268">
        <ele>317.5</ele>
        <time>2023-12-07T08:39:23Z</time>
      </trkpt>
      <trkpt lat="48.71148" lon="7.16276">
        <ele>317.2</ele>
        <time>2023-12-07T08:39:27Z</time>
      </trkpt>
    </trkseg>
  </trk>
</gpx>